createdAt,value
2018-04-25T00:01:48.685Z,99852.51
2018-04-25T00:04:16.421Z,99841.20
2018-04-25T00:06:43.980Z,99833.98
2018-04-25T00:09:11.761Z,99826.69
2018-04-25T00:11:39.307Z,99830.12
2018-04-25T00:14:07.636Z,99822.59
2018-04-25T00:16:35.229Z,99821.32
2018-04-25T00:19:02.925Z,99820.02
2018-04-25T00:21:33.182Z,99817.66
2018-04-25T00:24:00.856Z,99816.36
2018-04-25T00:26:28.516Z,99815.52
2018-04-25T00:28:56.096Z,99813.18
2018-04-25T00:31:24.570Z,99812.55
2018-04-25T00:33:52.284Z,99814.86
2018-04-25T00:36:19.888Z,99815.63
2018-04-25T00:38:48.345Z,99809.91
2018-04-25T00:41:15.956Z,99815.67
2018-04-25T00:43:43.580Z,99826.09
2018-04-25T00:46:11.365Z,99816.83
2018-04-25T00:48:39.028Z,99817.00
2018-04-25T00:51:06.613Z,99818.35
2018-04-25T00:53:34.182Z,99812.17
2018-04-25T00:56:04.550Z,99814.06
2018-04-25T00:58:32.221Z,99811.03
2018-04-25T01:00:59.893Z,99803.73
2018-04-25T01:03:27.547Z,99805.00
2018-04-25T01:05:55.145Z,99805.16
2018-04-25T01:08:22.752Z,99804.74
2018-04-25T01:10:50.388Z,99810.09
2018-04-25T01:13:18.788Z,99810.47
2018-04-25T01:15:46.425Z,99815.59
2018-04-25T01:18:14.933Z,99817.89
2018-04-25T01:20:43.421Z,99822.08
2018-04-25T01:23:11.122Z,99826.27
2018-04-25T01:25:39.644Z,99826.17
2018-04-25T01:28:10.585Z,99833.37
2018-04-25T01:30:46.031Z,99833.63
2018-04-25T01:36:36.212Z,99836.34
2018-04-25T01:39:08.754Z,99839.41
2018-04-25T01:41:36.503Z,99841.77
2018-04-25T01:47:05.664Z,99858.43
2018-04-25T01:49:56.914Z,99857.35
2018-04-25T01:52:36.394Z,99862.28
2018-04-25T01:55:15.553Z,99864.22
2018-04-25T01:57:54.893Z,99862.81
2018-04-25T02:00:34.321Z,99865.66
2018-04-25T02:03:01.345Z,99866.13
2018-04-25T02:05:29.000Z,99863.14
2018-04-25T02:07:56.552Z,99862.43
2018-04-25T02:10:24.150Z,99867.19
2018-04-25T02:12:51.716Z,99862.01
2018-04-25T02:15:19.405Z,99859.75
2018-04-25T02:17:47.051Z,99863.97
2018-04-25T02:20:14.757Z,99863.80
2018-04-25T02:22:43.279Z,99863.84
2018-04-25T02:25:10.877Z,99864.59
2018-04-25T02:27:38.470Z,99867.22
2018-04-25T02:30:06.905Z,99870.16
2018-04-25T02:32:34.523Z,99870.24
2018-04-25T02:35:02.953Z,99868.38
2018-04-25T02:37:30.633Z,99874.55
2018-04-25T02:39:58.213Z,99876.30
2018-04-25T02:42:25.845Z,99882.43
2018-04-25T02:44:53.439Z,99879.95
2018-04-25T02:47:21.005Z,99883.91
2018-04-25T02:49:48.697Z,99882.65
2018-04-25T02:52:16.264Z,99887.85
2018-04-25T02:54:43.841Z,99890.56
2018-04-25T02:57:12.292Z,99883.48
2018-04-25T02:59:39.958Z,99887.85
2018-04-25T03:02:07.570Z,99890.88
2018-04-25T03:04:35.134Z,99894.10
2018-04-25T03:07:02.745Z,99888.16
2018-04-25T03:09:31.220Z,99894.81
2018-04-25T03:11:58.789Z,99899.63
2018-04-25T03:14:26.424Z,99899.50
2018-04-25T03:16:54.039Z,99899.40
2018-04-25T03:19:21.680Z,99905.12
2018-04-25T03:21:49.247Z,99913.53
2018-04-25T03:24:16.856Z,99914.67
2018-04-25T03:26:45.196Z,99906.23
2018-04-25T03:29:12.784Z,99913.43
2018-04-25T03:31:40.351Z,99910.72
2018-04-25T03:34:07.949Z,99916.14
2018-04-25T03:36:35.598Z,99919.87
2018-04-25T03:39:03.233Z,99915.91
2018-04-25T03:41:30.854Z,99922.17
2018-04-25T03:43:58.525Z,99923.03
2018-04-25T03:46:26.141Z,99926.78
2018-04-25T03:48:53.787Z,99932.84
2018-04-25T03:51:21.348Z,99933.07
2018-04-25T03:53:48.917Z,99931.22
2018-04-25T03:56:16.592Z,99937.97
2018-04-25T03:58:44.288Z,99937.70
2018-04-25T04:01:12.025Z,99943.72
2018-04-25T04:03:39.592Z,99948.95
2018-04-25T04:06:07.326Z,99951.67
2018-04-25T04:08:34.888Z,99942.94
2018-04-25T04:11:02.504Z,99948.33
2018-04-25T04:13:30.101Z,99942.45
2018-04-25T04:15:57.791Z,99950.39
2018-04-25T04:18:25.394Z,99948.59
2018-04-25T04:20:52.985Z,99946.34
2018-04-25T04:23:20.557Z,99945.30
2018-04-25T04:25:48.121Z,99940.52
2018-04-25T04:28:15.768Z,99945.11
2018-04-25T04:30:43.945Z,99947.19
2018-04-25T04:33:11.719Z,99953.53
2018-04-25T04:35:39.307Z,99954.63
2018-04-25T04:38:06.940Z,99957.45
2018-04-25T04:40:34.510Z,99963.66
2018-04-25T04:43:02.093Z,99969.25
2018-04-25T04:45:29.728Z,99972.41
2018-04-25T04:47:57.316Z,99981.62
2018-04-25T04:50:24.945Z,99988.86
2018-04-25T04:52:52.528Z,99988.77
2018-04-25T04:55:21.057Z,99985.63
2018-04-25T04:57:48.644Z,99988.52
2018-04-25T05:00:16.248Z,99982.72
2018-04-25T05:02:43.803Z,99990.91
2018-04-25T05:05:11.371Z,99987.27
2018-04-25T05:07:39.078Z,99991.20
2018-04-25T05:10:06.701Z,99991.27
2018-04-25T05:12:34.352Z,99988.69
2018-04-25T05:15:01.977Z,99993.13
2018-04-25T05:17:29.568Z,99991.00
2018-04-25T05:19:57.136Z,99995.49
2018-04-25T05:22:24.753Z,99994.02
2018-04-25T05:24:52.511Z,99988.52
2018-04-25T05:27:20.089Z,99993.03
2018-04-25T05:29:47.729Z,99986.98
2018-04-25T05:32:15.446Z,99994.25
2018-04-25T05:34:43.037Z,99993.87
2018-04-25T05:37:10.696Z,99997.90
2018-04-25T05:39:38.460Z,99986.25
2018-04-25T05:42:06.072Z,99993.67
2018-04-25T05:44:33.656Z,99996.27
2018-04-25T05:47:01.233Z,99998.52
2018-04-25T05:49:28.980Z,100000.31
2018-04-25T05:51:56.587Z,99998.89
2018-04-25T05:54:24.210Z,100000.34
2018-04-25T05:56:52.210Z,99999.14
2018-04-25T05:59:19.768Z,100005.16
2018-04-25T06:01:47.497Z,100004.30
2018-04-25T06:04:15.115Z,100005.73
2018-04-25T06:06:42.724Z,100008.74
2018-04-25T06:09:10.316Z,100017.05
2018-04-25T06:11:38.873Z,100025.13
2018-04-25T06:14:06.467Z,100029.08
2018-04-25T06:16:34.173Z,100028.86
2018-04-25T06:19:01.749Z,100019.20
2018-04-25T06:21:29.348Z,100022.98
2018-04-25T06:23:57.031Z,100018.16
2018-04-25T06:26:24.725Z,100019.55
2018-04-25T06:28:52.295Z,100020.72
2018-04-25T06:31:19.973Z,100022.25
2018-04-25T06:33:47.591Z,100018.88
2018-04-25T06:36:15.448Z,100029.70
2018-04-25T06:38:43.029Z,100020.52
2018-04-25T06:41:10.729Z,100021.84
2018-04-25T06:43:38.311Z,100024.46
2018-04-25T06:46:05.929Z,100014.83
2018-04-25T06:48:33.572Z,100009.78
2018-04-25T06:51:01.209Z,100022.94
2018-04-25T06:53:28.861Z,100020.54
2018-04-25T06:55:56.577Z,100018.09
2018-04-25T06:58:24.213Z,100017.97
2018-04-25T07:00:51.830Z,100023.47
2018-04-25T07:03:19.409Z,100023.19
2018-04-25T07:05:47.021Z,100021.13
2018-04-25T07:08:14.700Z,100022.63
2018-04-25T07:10:42.376Z,100017.78
2018-04-25T07:13:10.024Z,100018.19
2018-04-25T07:15:37.677Z,100015.08
2018-04-25T07:18:05.238Z,100015.79
2018-04-25T07:20:32.815Z,100019.45
2018-04-25T07:23:00.453Z,100021.96
2018-04-25T07:25:28.037Z,100019.63
2018-04-25T07:27:55.679Z,100017.56
2018-04-25T07:30:23.255Z,100021.52
2018-04-25T07:32:50.953Z,100022.20
2018-04-25T07:35:18.592Z,100023.87
2018-04-25T07:37:46.161Z,100025.53
2018-04-25T07:40:13.733Z,100025.39
2018-04-25T07:42:41.362Z,100026.42
2018-04-25T07:45:08.989Z,100028.98
2018-04-25T07:47:36.613Z,100033.11
2018-04-25T07:50:04.323Z,100031.38
2018-04-25T07:52:31.892Z,100035.81
2018-04-25T07:54:59.447Z,100032.48
2018-04-25T07:57:27.025Z,100033.55
2018-04-25T07:59:54.665Z,100033.75
2018-04-25T08:02:22.280Z,100032.30
2018-04-25T08:04:49.989Z,100031.32
2018-04-25T08:07:17.704Z,100030.49
2018-04-25T08:09:45.278Z,100025.81
2018-04-25T08:12:24.711Z,100033.20
2018-04-25T08:15:03.960Z,100021.92
2018-04-25T08:17:43.457Z,100026.71
2018-04-25T08:20:22.858Z,100026.48
2018-04-25T08:22:50.469Z,100029.06
2018-04-25T08:25:18.197Z,100028.57
2018-04-25T08:27:45.864Z,100022.69
2018-04-25T08:30:13.497Z,100022.91
2018-04-25T08:32:41.117Z,100026.50
2018-04-25T08:35:08.764Z,100021.59
2018-04-25T08:37:36.348Z,100027.61
2018-04-25T08:40:03.981Z,100023.92
2018-04-25T08:42:31.612Z,100024.23
2018-04-25T08:44:59.271Z,100016.25
2018-04-25T08:47:26.901Z,100014.63
2018-04-25T08:49:54.464Z,100019.28
2018-04-25T08:52:22.068Z,100013.97
2018-04-25T08:54:49.666Z,100013.77
2018-04-25T08:57:17.321Z,100013.28
2018-04-25T08:59:45.712Z,100011.36
2018-04-25T09:02:13.376Z,100008.41
2018-04-25T09:04:41.058Z,100011.62
2018-04-25T09:07:08.681Z,100007.25
2018-04-25T09:09:36.280Z,100005.05
2018-04-25T09:12:03.827Z,100001.11
2018-04-25T09:14:31.461Z,99997.36
2018-04-25T09:16:59.160Z,99995.75
2018-04-25T09:19:26.730Z,99983.61
2018-04-25T09:21:54.430Z,99987.22
2018-04-25T09:24:22.016Z,99974.43
2018-04-25T09:26:49.573Z,99977.73
2018-04-25T09:29:17.140Z,99973.83
2018-04-25T09:31:44.848Z,99973.03
2018-04-25T09:34:12.505Z,99970.06
2018-04-25T09:36:40.091Z,99962.58
2018-04-25T09:39:07.773Z,99961.34
2018-04-25T09:41:35.329Z,99962.47
2018-04-25T09:44:02.991Z,99952.27
2018-04-25T09:46:30.642Z,99957.30
2018-04-25T09:48:58.261Z,99951.75
2018-04-25T09:51:25.974Z,99954.39
2018-04-25T09:53:53.660Z,99956.20
2018-04-25T09:56:21.407Z,99952.61
2018-04-25T09:58:48.969Z,99951.83
2018-04-25T10:01:22.216Z,99946.98
2018-04-25T10:03:49.783Z,99941.63
2018-04-25T10:06:17.420Z,99949.36
2018-04-25T10:08:44.970Z,99947.02
2018-04-25T10:11:12.555Z,99943.47
2018-04-25T10:13:40.177Z,99949.73
2018-04-25T10:16:07.732Z,99935.55
2018-04-25T10:18:35.344Z,99940.97
2018-04-25T10:21:02.904Z,99930.45
2018-04-25T10:23:30.557Z,99927.97
2018-04-25T10:25:58.131Z,99924.32
2018-04-25T10:28:25.749Z,99921.52
2018-04-25T10:30:53.425Z,99926.83
2018-04-25T10:33:21.073Z,99917.68
2018-04-25T10:35:48.709Z,99914.73
2018-04-25T10:38:16.295Z,99905.72
2018-04-25T10:40:43.936Z,99910.28
2018-04-25T10:43:11.559Z,99904.97
2018-04-25T10:45:39.192Z,99903.88
2018-04-25T10:48:06.744Z,99903.95
2018-04-25T10:50:34.311Z,99901.52
2018-04-25T10:53:01.957Z,99900.97
2018-04-25T10:55:29.644Z,99910.54
2018-04-25T10:57:57.150Z,99903.38
2018-04-25T11:00:24.716Z,99901.13
2018-04-25T11:02:52.368Z,99896.53
2018-04-25T11:05:19.928Z,99896.22
2018-04-25T11:07:47.541Z,99890.23
2018-04-25T11:10:15.183Z,99891.50
2018-04-25T11:12:43.739Z,99887.88
2018-04-25T11:15:11.297Z,99880.73
2018-04-25T11:17:38.936Z,99886.08
2018-04-25T11:20:06.576Z,99883.62
2018-04-25T11:22:34.225Z,99873.74
2018-04-25T11:25:01.950Z,99868.05
2018-04-25T11:27:29.530Z,99868.86
2018-04-25T11:29:57.092Z,99866.52
2018-04-25T11:32:24.656Z,99862.25
2018-04-25T11:34:52.286Z,99857.34
2018-04-25T11:37:19.948Z,99855.97
2018-04-25T11:39:47.578Z,99859.73
2018-04-25T11:42:15.243Z,99851.09
2018-04-25T11:44:42.838Z,99849.80
2018-04-25T11:47:10.564Z,99842.47
2018-04-25T11:49:38.084Z,99838.05
2018-04-25T11:52:05.643Z,99838.78
2018-04-25T11:54:33.210Z,99832.22
2018-04-25T11:57:00.785Z,99828.98
2018-04-25T11:59:28.464Z,99818.81
2018-04-25T12:01:56.097Z,99812.05
2018-04-25T12:04:23.753Z,99800.20
2018-04-25T12:06:51.405Z,99800.28
2018-04-25T12:09:18.960Z,99789.09
2018-04-25T12:11:46.529Z,99787.87
2018-04-25T12:14:14.104Z,99787.23
2018-04-25T12:16:42.678Z,99779.63
2018-04-25T12:19:10.272Z,99772.58
2018-04-25T12:21:38.049Z,99773.66
2018-04-25T12:24:05.649Z,99777.25
2018-04-25T12:26:33.283Z,99770.95
2018-04-25T12:29:00.859Z,99775.39
2018-04-25T12:31:28.441Z,99776.29
2018-04-25T12:33:56.052Z,99781.26
2018-04-25T12:36:23.655Z,99780.37
2018-04-25T12:38:51.397Z,99771.34
2018-04-25T12:41:18.988Z,99773.03
2018-04-25T12:43:46.629Z,99765.91
2018-04-25T12:46:14.196Z,99767.45
2018-04-25T12:48:41.768Z,99763.15
2018-04-25T12:51:09.396Z,99768.62
2018-04-25T12:53:37.024Z,99764.23
2018-04-25T12:56:04.648Z,99761.51
2018-04-25T12:58:32.285Z,99756.77
2018-04-25T13:00:59.905Z,99756.45
2018-04-25T13:03:27.558Z,99753.00
2018-04-25T13:05:55.221Z,99747.83
2018-04-25T13:08:22.893Z,99755.85
2018-04-25T13:10:50.509Z,99749.25
2018-04-25T13:13:18.078Z,99746.80
2018-04-25T13:15:45.729Z,99740.92
2018-04-25T13:18:19.894Z,99741.58
2018-04-25T13:20:47.577Z,99738.39
2018-04-25T13:23:15.133Z,99734.17
2018-04-25T13:25:42.860Z,99738.90
2018-04-25T13:28:10.426Z,99724.52
2018-04-25T13:30:38.068Z,99731.92
2018-04-25T13:33:05.710Z,99728.54
2018-04-25T13:35:33.285Z,99724.94
2018-04-25T13:38:00.961Z,99725.23
2018-04-25T13:40:28.624Z,99721.27
2018-04-25T13:42:56.270Z,99719.16
2018-04-25T13:45:23.915Z,99710.67
2018-04-25T13:47:51.476Z,99725.56
2018-04-25T13:50:19.161Z,99717.87
2018-04-25T13:52:46.752Z,99717.95
2018-04-25T13:55:14.385Z,99709.39
2018-04-25T13:57:41.972Z,99711.89
2018-04-25T14:00:09.649Z,99707.16
2018-04-25T14:02:37.269Z,99710.98
2018-04-25T14:05:04.828Z,99708.32
2018-04-25T14:07:32.454Z,99706.20
2018-04-25T14:10:00.005Z,99708.34
2018-04-25T14:12:27.575Z,99695.44
2018-04-25T14:14:55.136Z,99701.95
2018-04-25T14:17:22.760Z,99703.45
2018-04-25T14:19:50.417Z,99701.97
2018-04-25T14:22:17.970Z,99693.06
2018-04-25T14:24:45.605Z,99698.94
2018-04-25T14:27:13.196Z,99689.81
2018-04-25T14:29:40.870Z,99689.34
2018-04-25T14:32:08.448Z,99683.53
2018-04-25T14:34:36.060Z,99685.74
2018-04-25T14:37:03.617Z,99675.41
2018-04-25T14:39:31.240Z,99669.89
2018-04-25T14:41:58.806Z,99667.38
2018-04-25T14:44:26.374Z,99664.57
2018-04-25T14:46:53.937Z,99665.52
2018-04-25T14:49:21.484Z,99665.59
2018-04-25T14:51:49.106Z,99664.48
2018-04-25T14:54:16.659Z,99660.45
2018-04-25T14:56:44.860Z,99663.23
2018-04-25T14:59:13.409Z,99664.63
2018-04-25T15:01:41.071Z,99661.86
2018-04-25T15:04:08.688Z,99660.98
2018-04-25T15:06:36.285Z,99659.07
2018-04-25T15:09:03.953Z,99651.98
2018-04-25T15:11:31.554Z,99657.30
2018-04-25T15:13:59.206Z,99651.17
2018-04-25T15:16:26.792Z,99654.67
2018-04-25T15:18:54.411Z,99650.29
2018-04-25T15:21:22.019Z,99650.44
2018-04-25T15:23:49.607Z,99653.11
2018-04-25T15:26:17.248Z,99649.25
2018-04-25T15:28:44.836Z,99650.62
2018-04-25T15:31:12.513Z,99648.34
2018-04-25T15:33:40.133Z,99650.28
2018-04-25T15:36:07.707Z,99649.09
2018-04-25T15:38:35.276Z,99650.16
2018-04-25T15:41:02.990Z,99644.98
2018-04-25T15:43:30.653Z,99649.91
2018-04-25T15:45:58.220Z,99645.81
2018-04-25T15:48:25.981Z,99646.92
2018-04-25T15:50:53.632Z,99641.59
2018-04-25T15:53:21.415Z,99636.98
2018-04-25T15:55:49.018Z,99633.22
2018-04-25T15:58:16.635Z,99632.57
2018-04-25T16:00:44.298Z,99627.83
2018-04-25T16:03:11.871Z,99627.58
2018-04-25T16:05:39.544Z,99626.83
2018-04-25T16:08:07.132Z,99624.30
2018-04-25T16:10:34.801Z,99623.27
2018-04-25T16:13:02.453Z,99626.24
2018-04-25T16:15:30.069Z,99621.05
2018-04-25T16:17:57.636Z,99622.22
2018-04-25T16:20:25.234Z,99622.84
2018-04-25T16:22:53.002Z,99625.78
2018-04-25T16:25:20.539Z,99623.64
2018-04-25T16:27:48.110Z,99618.47
2018-04-25T16:30:15.675Z,99617.28
2018-04-25T16:32:43.254Z,99620.37
2018-04-25T16:35:10.980Z,99620.17
2018-04-25T16:37:38.532Z,99624.74
2018-04-25T16:40:06.198Z,99619.98
2018-04-25T16:42:33.829Z,99627.28
2018-04-25T16:45:01.477Z,99631.83
2018-04-25T16:47:29.101Z,99629.92
2018-04-25T16:49:56.657Z,99636.66
2018-04-25T16:52:24.225Z,99638.79
2018-04-25T16:54:51.848Z,99631.08
2018-04-25T16:57:19.591Z,99634.47
2018-04-25T16:59:47.196Z,99639.62
2018-04-25T17:02:14.802Z,99639.52
2018-04-25T17:04:42.437Z,99641.48
2018-04-25T17:07:09.991Z,99644.39
2018-04-25T17:09:37.612Z,99651.03
2018-04-25T17:12:05.239Z,99649.77
2018-04-25T17:14:32.950Z,99650.87
2018-04-25T17:17:00.518Z,99650.47
2018-04-25T17:19:28.091Z,99654.03
2018-04-25T17:21:55.673Z,99661.86
2018-04-25T17:24:23.267Z,99666.49
2018-04-25T17:26:50.841Z,99663.31
2018-04-25T17:29:18.485Z,99661.80
2018-04-25T17:31:46.152Z,99670.66
2018-04-25T17:34:13.792Z,99665.89
2018-04-25T17:36:41.417Z,99667.83
2018-04-25T17:39:08.999Z,99670.05
2018-04-25T17:41:36.688Z,99662.38
2018-04-25T17:44:04.238Z,99665.51
2018-04-25T17:46:31.807Z,99669.46
2018-04-25T17:48:59.489Z,99667.83
2018-04-25T17:51:27.075Z,99662.42
2018-04-25T17:53:54.656Z,99664.92
2018-04-25T17:56:22.236Z,99666.98
2018-04-25T17:58:49.830Z,99669.47
2018-04-25T18:01:17.457Z,99672.38
2018-04-25T18:03:45.025Z,99668.88
2018-04-25T18:06:12.681Z,99679.16
2018-04-25T18:08:40.321Z,99683.06
2018-04-25T18:11:07.916Z,99686.41
2018-04-25T18:13:35.481Z,99678.67
2018-04-25T18:16:03.080Z,99683.02
2018-04-25T18:18:30.716Z,99686.97
2018-04-25T18:20:58.293Z,99689.20
2018-04-25T18:23:25.908Z,99684.28
2018-04-25T18:25:53.476Z,99690.27
2018-04-25T18:28:21.040Z,99690.75
2018-04-25T18:30:48.681Z,99697.06
2018-04-25T18:33:16.329Z,99694.33
2018-04-25T18:35:43.971Z,99695.58
2018-04-25T18:38:11.599Z,99707.62
2018-04-25T18:40:39.212Z,99710.98
2018-04-25T18:43:06.849Z,99708.56
2018-04-25T18:45:34.407Z,99705.64
2018-04-25T18:48:02.052Z,99705.59
2018-04-25T18:50:29.659Z,99711.59
2018-04-25T18:52:57.241Z,99707.07
2018-04-25T18:55:24.801Z,99706.19
2018-04-25T18:57:52.475Z,99708.14
2018-04-25T19:00:20.060Z,99698.98
2018-04-25T19:02:47.704Z,99705.75
2018-04-25T19:05:15.426Z,99712.05
2018-04-25T19:07:43.007Z,99708.59
2018-04-25T19:10:10.582Z,99713.27
2018-04-25T19:12:38.140Z,99713.78
2018-04-25T19:15:05.797Z,99706.66
2018-04-25T19:17:33.386Z,99711.36
2018-04-25T19:20:00.973Z,99713.19
2018-04-25T19:22:28.605Z,99713.98
2018-04-25T19:24:56.190Z,99710.17
2018-04-25T19:27:23.760Z,99709.17
2018-04-25T19:29:51.382Z,99708.46
2018-04-25T19:32:19.031Z,99707.46
2018-04-25T19:34:46.593Z,99706.27
2018-04-25T19:37:14.168Z,99709.24
2018-04-25T19:39:41.777Z,99710.59
2018-04-25T19:42:09.332Z,99709.66
2018-04-25T19:44:37.014Z,99703.66
2018-04-25T19:47:04.641Z,99698.17
2018-04-25T19:49:32.264Z,99702.41
2018-04-25T19:51:59.828Z,99698.77
2018-04-25T19:54:27.447Z,99697.78
2018-04-25T19:56:55.063Z,99699.94
2018-04-25T19:59:22.641Z,99698.89
2018-04-25T20:01:50.222Z,99705.72
2018-04-25T20:04:17.825Z,99704.13
2018-04-25T20:06:45.448Z,99701.71
2018-04-25T20:09:13.061Z,99703.80
2018-04-25T20:11:40.633Z,99699.94
2018-04-25T20:14:08.204Z,99700.00
2018-04-25T20:16:35.773Z,99703.87
2018-04-25T20:19:03.404Z,99707.91
2018-04-25T20:21:31.042Z,99702.05
2018-04-25T20:23:58.656Z,99699.80
2018-04-25T20:26:26.361Z,99697.34
2018-04-25T20:28:53.901Z,99700.12
2018-04-25T20:31:21.468Z,99703.48
2018-04-25T20:33:49.048Z,99703.94
2018-04-25T20:36:16.664Z,99706.41
2018-04-25T20:38:44.300Z,99708.00
2018-04-25T20:41:11.912Z,99704.42
2018-04-25T20:43:39.480Z,99702.88
2018-04-25T20:46:07.066Z,99705.48
2018-04-25T20:48:34.647Z,99715.12
2018-04-25T20:51:02.249Z,99711.45
2018-04-25T20:53:29.883Z,99707.64
2018-04-25T20:55:57.450Z,99714.25
2018-04-25T20:58:25.066Z,99712.34
2018-04-25T21:00:53.416Z,99710.20
2018-04-25T21:03:21.021Z,99704.17
2018-04-25T21:05:48.673Z,99696.34
2018-04-25T21:08:16.241Z,99700.81
2018-04-25T21:10:43.917Z,99703.83
2018-04-25T21:13:11.605Z,99697.33
2018-04-25T21:15:39.550Z,99704.32
2018-04-25T21:18:07.129Z,99706.39
2018-04-25T21:20:34.721Z,99709.63
2018-04-25T21:23:02.364Z,99707.07
2018-04-25T21:25:30.876Z,99703.63
2018-04-25T21:27:58.436Z,99707.07
2018-04-25T21:30:26.002Z,99704.89
2018-04-25T21:32:53.577Z,99701.67
2018-04-25T21:35:21.275Z,99709.13
2018-04-25T21:37:48.972Z,99711.51
2018-04-25T21:40:16.595Z,99704.09
2018-04-25T21:42:44.172Z,99705.11
2018-04-25T21:45:11.745Z,99705.30
2018-04-25T21:47:39.392Z,99714.89
2018-04-25T21:50:07.041Z,99711.58
2018-04-25T21:52:34.593Z,99709.72
2018-04-25T21:55:02.202Z,99706.28
2018-04-25T21:57:29.836Z,99706.80
2018-04-25T21:59:57.499Z,99709.19
2018-04-25T22:02:25.065Z,99714.80
2018-04-25T22:04:53.077Z,99713.83
2018-04-25T22:07:20.776Z,99715.05
2018-04-25T22:09:48.365Z,99720.34
2018-04-25T22:12:15.990Z,99716.34
2018-04-25T22:14:43.630Z,99718.03
2018-04-25T22:17:11.220Z,99711.66
2018-04-25T22:19:38.889Z,99712.36
2018-04-25T22:22:06.521Z,99720.17
2018-04-25T22:24:34.895Z,99718.40
2018-04-25T22:27:02.500Z,99714.84
2018-04-25T22:29:30.072Z,99721.78
2018-04-25T22:31:57.630Z,99717.05
2018-04-25T22:34:25.208Z,99708.88
2018-04-25T22:36:52.844Z,99702.20
2018-04-25T22:39:20.466Z,99701.89
2018-04-25T22:41:48.116Z,99703.81
2018-04-25T22:44:15.782Z,99709.52
2018-04-25T22:46:43.400Z,99700.95
2018-04-25T22:49:11.031Z,99698.75
2018-04-25T22:51:38.667Z,99695.14
2018-04-25T22:54:06.292Z,99694.18
2018-04-25T22:56:33.908Z,99693.95
2018-04-25T22:59:01.537Z,99696.80
2018-04-25T23:01:29.263Z,99696.07
2018-04-25T23:03:56.841Z,99692.36
2018-04-25T23:06:24.458Z,99696.19
2018-04-25T23:08:52.096Z,99696.45
2018-04-25T23:11:19.737Z,99690.20
2018-04-25T23:13:47.450Z,99683.73
2018-04-25T23:16:15.072Z,99685.50
2018-04-25T23:18:42.717Z,99687.28
2018-04-25T23:21:10.400Z,99678.42
2018-04-25T23:23:38.956Z,99686.13
2018-04-25T23:26:06.634Z,99681.45
2018-04-25T23:32:05.052Z,99671.75
2018-04-25T23:34:32.676Z,99671.97
2018-04-25T23:37:00.287Z,99671.34
2018-04-25T23:39:27.927Z,99672.18
2018-04-25T23:41:55.561Z,99670.56
2018-04-25T23:44:23.234Z,99669.12
2018-04-25T23:46:50.867Z,99663.55
2018-04-25T23:49:18.600Z,99668.38
2018-04-25T23:51:47.037Z,99664.64
2018-04-25T23:54:14.763Z,99659.44
2018-04-25T23:56:42.407Z,99666.36
2018-04-25T23:59:10.040Z,99666.98
